createdAt,value
2017-09-15T00:00:41.171Z,84.9
2017-09-15T00:01:41.959Z,85.4
2017-09-15T00:02:42.721Z,85.3
2017-09-15T00:03:43.813Z,85.7
2017-09-15T00:04:44.751Z,85.7
2017-09-15T00:05:45.948Z,85.5
2017-09-15T00:06:46.642Z,85.2
2017-09-15T00:07:47.433Z,85.2
2017-09-15T00:08:48.201Z,85.4
2017-09-15T00:09:48.981Z,85.7
2017-09-15T00:10:49.734Z,85.8
2017-09-15T00:11:51.010Z,85.7
2017-09-15T00:12:51.972Z,85.2
2017-09-15T00:13:52.739Z,85.0
2017-09-15T00:14:53.527Z,84.8
2017-09-15T00:15:54.670Z,84.9
2017-09-15T00:16:55.632Z,85.2
2017-09-15T00:17:56.937Z,85.7
2017-09-15T00:18:58.017Z,85.9
2017-09-15T00:19:58.944Z,85.3
2017-09-15T00:20:59.653Z,85.2
2017-09-15T00:22:00.379Z,84.9
2017-09-15T00:23:01.444Z,85.2
2017-09-15T00:24:02.142Z,84.7
2017-09-15T00:25:03.004Z,85.1
2017-09-15T00:26:04.062Z,85.3
2017-09-15T00:27:05.579Z,85.8
2017-09-15T00:28:06.457Z,85.0
2017-09-15T00:29:13.516Z,85.8
2017-09-15T00:30:14.848Z,86.0
2017-09-15T00:31:15.908Z,86.2
2017-09-15T00:32:17.253Z,85.7
2017-09-15T00:33:18.027Z,86.0
2017-09-15T00:34:19.517Z,86.0
2017-09-15T00:35:20.533Z,86.4
2017-09-15T00:36:21.544Z,86.5
2017-09-15T00:37:22.558Z,85.9
2017-09-15T00:38:23.439Z,85.8
2017-09-15T00:39:24.143Z,85.7
2017-09-15T00:40:24.916Z,85.9
2017-09-15T00:41:25.693Z,85.8
2017-09-15T00:42:26.492Z,86.0
2017-09-15T00:43:27.286Z,85.8
2017-09-15T00:44:28.101Z,86.3
2017-09-15T00:45:29.146Z,86.6
2017-09-15T00:46:29.825Z,86.7
2017-09-15T00:47:30.556Z,86.0
2017-09-15T00:48:31.341Z,84.8
2017-09-15T00:49:32.100Z,85.4
2017-09-15T00:50:32.929Z,86.0
2017-09-15T00:51:33.717Z,86.0
2017-09-15T00:52:34.472Z,85.2
2017-09-15T00:53:35.203Z,85.1
2017-09-15T00:54:36.876Z,84.6
2017-09-15T00:55:37.613Z,85.6
2017-09-15T00:56:38.336Z,85.2
2017-09-15T00:57:39.077Z,84.6
2017-09-15T00:58:39.863Z,84.4
2017-09-15T00:59:41.277Z,85.0
2017-09-15T01:00:42.373Z,85.3
2017-09-15T01:01:44.149Z,85.1
2017-09-15T01:02:45.302Z,84.3
2017-09-15T01:03:46.298Z,83.9
2017-09-15T01:04:47.925Z,84.4
2017-09-15T01:05:49.082Z,84.9
2017-09-15T01:06:50.447Z,84.1
2017-09-15T01:07:51.611Z,84.6
2017-09-15T01:08:53.159Z,84.9
2017-09-15T01:09:53.830Z,84.3
2017-09-15T01:10:54.626Z,85.0
2017-09-15T01:11:55.574Z,85.7
2017-09-15T01:12:56.397Z,85.8
2017-09-15T01:13:57.127Z,85.1
2017-09-15T01:14:58.031Z,84.4
2017-09-15T01:15:58.813Z,86.0
2017-09-15T01:16:59.933Z,86.1
2017-09-15T01:18:00.620Z,86.0
2017-09-15T01:19:01.368Z,84.9
2017-09-15T01:20:02.155Z,85.3
2017-09-15T01:21:03.254Z,85.4
2017-09-15T01:22:03.993Z,85.4
2017-09-15T01:23:05.052Z,84.6
2017-09-15T01:24:05.773Z,85.5
2017-09-15T01:25:06.608Z,85.5
2017-09-15T01:26:07.368Z,85.3
2017-09-15T01:27:08.165Z,84.7
2017-09-15T01:28:08.926Z,83.8
2017-09-15T01:29:09.726Z,84.7
2017-09-15T01:30:10.611Z,84.8
2017-09-15T01:31:11.624Z,84.6
2017-09-15T01:32:12.617Z,85.9
2017-09-15T01:33:13.439Z,85.0
2017-09-15T01:34:14.219Z,85.2
2017-09-15T01:35:14.961Z,84.9
2017-09-15T01:36:15.669Z,85.5
2017-09-15T01:37:16.468Z,86.1
2017-09-15T01:38:17.243Z,86.4
2017-09-15T01:39:18.007Z,86.0
2017-09-15T01:40:18.726Z,86.7
2017-09-15T01:41:19.455Z,86.2
2017-09-15T01:42:20.296Z,87.1
2017-09-15T01:43:21.752Z,86.2
2017-09-15T01:44:22.504Z,87.0
2017-09-15T01:45:23.280Z,87.6
2017-09-15T01:46:24.080Z,87.6
2017-09-15T01:47:25.014Z,87.7
2017-09-15T01:48:25.851Z,88.2
2017-09-15T01:49:26.626Z,88.0
2017-09-15T01:50:27.742Z,87.9
2017-09-15T01:51:28.738Z,87.8
2017-09-15T01:52:30.166Z,87.3
2017-09-15T01:53:30.931Z,86.8
2017-09-15T01:54:32.551Z,86.9
2017-09-15T01:55:33.463Z,86.8
2017-09-15T01:56:34.212Z,86.1
2017-09-15T01:57:35.011Z,86.4
2017-09-15T01:58:35.734Z,86.4
2017-09-15T01:59:36.469Z,85.8
2017-09-15T02:01:52.755Z,85.7
2017-09-15T02:02:53.451Z,85.9
2017-09-15T02:03:54.234Z,86.5
2017-09-15T02:04:55.052Z,85.9
2017-09-15T02:05:55.968Z,86.6
2017-09-15T02:06:56.709Z,86.9
2017-09-15T02:07:57.439Z,86.7
2017-09-15T02:08:58.231Z,86.5
2017-09-15T02:09:58.987Z,85.2
2017-09-15T02:10:59.798Z,85.1
2017-09-15T02:12:00.741Z,85.7
2017-09-15T02:13:01.506Z,85.3
2017-09-15T02:14:02.867Z,86.0
2017-09-15T02:15:03.663Z,86.0
2017-09-15T02:16:04.453Z,86.0
2017-09-15T02:17:05.243Z,86.4
2017-09-15T02:18:06.203Z,86.3
2017-09-15T02:19:07.380Z,86.3
2017-09-15T02:20:08.063Z,86.7
2017-09-15T02:21:08.775Z,86.6
2017-09-15T02:22:09.527Z,86.8
2017-09-15T02:23:10.261Z,86.4
2017-09-15T02:24:11.320Z,86.2
2017-09-15T02:25:12.180Z,87.0
2017-09-15T02:26:12.917Z,87.1
2017-09-15T02:27:13.744Z,86.9
2017-09-15T02:28:14.430Z,86.7
2017-09-15T02:29:15.287Z,86.9
2017-09-15T02:30:16.026Z,86.9
2017-09-15T02:31:16.974Z,86.8
2017-09-15T02:32:17.752Z,86.5
2017-09-15T02:33:18.451Z,87.4
2017-09-15T02:34:19.286Z,87.1
2017-09-15T02:35:20.068Z,87.7
2017-09-15T02:36:20.760Z,87.6
2017-09-15T02:37:21.513Z,87.8
2017-09-15T02:38:22.295Z,87.3
2017-09-15T02:39:23.038Z,87.0
2017-09-15T02:40:23.852Z,87.1
2017-09-15T02:41:24.906Z,86.9
2017-09-15T02:42:25.576Z,87.0
2017-09-15T02:43:26.457Z,86.9
2017-09-15T02:44:27.248Z,86.8
2017-09-15T02:45:27.992Z,86.3
2017-09-15T02:46:29.151Z,86.5
2017-09-15T02:47:29.875Z,86.8
2017-09-15T02:48:30.807Z,86.4
2017-09-15T02:49:31.686Z,86.8
2017-09-15T02:50:32.515Z,87.3
2017-09-15T02:51:33.270Z,86.8
2017-09-15T02:52:33.968Z,86.4
2017-09-15T02:53:34.775Z,86.1
2017-09-15T02:54:35.509Z,85.7
2017-09-15T02:55:36.348Z,86.2
2017-09-15T02:56:37.196Z,86.2
2017-09-15T02:57:38.496Z,86.1
2017-09-15T02:58:39.229Z,86.1
2017-09-15T02:59:40.388Z,85.4
2017-09-15T03:00:41.084Z,85.4
2017-09-15T03:01:41.810Z,84.7
2017-09-15T03:02:42.504Z,85.6
2017-09-15T03:03:43.409Z,85.3
2017-09-15T03:04:44.214Z,84.7
2017-09-15T03:05:44.942Z,84.4
2017-09-15T03:06:45.675Z,84.5
2017-09-15T03:07:46.408Z,84.4
2017-09-15T03:08:47.443Z,84.1
2017-09-15T03:09:48.122Z,84.7
2017-09-15T03:10:48.864Z,84.2
2017-09-15T03:11:49.606Z,84.6
2017-09-15T03:12:50.344Z,84.8
2017-09-15T03:13:51.076Z,85.6
2017-09-15T03:14:51.902Z,85.4
2017-09-15T03:15:52.693Z,85.4
2017-09-15T03:16:53.461Z,86.1
2017-09-15T03:17:54.174Z,85.4
2017-09-15T03:18:55.049Z,85.0
2017-09-15T03:19:55.798Z,85.1
2017-09-15T03:20:56.561Z,84.3
2017-09-15T03:21:57.309Z,83.8
2017-09-15T03:22:58.270Z,84.3
2017-09-15T03:23:59.056Z,84.6
2017-09-15T03:24:59.923Z,84.9
2017-09-15T03:26:00.689Z,84.4
2017-09-15T03:27:01.465Z,85.0
2017-09-15T03:28:02.179Z,84.8
2017-09-15T03:29:02.912Z,84.4
2017-09-15T03:30:03.654Z,84.7
2017-09-15T03:31:04.650Z,84.2
2017-09-15T03:32:05.668Z,83.6
2017-09-15T03:33:06.434Z,83.9
2017-09-15T03:34:07.157Z,83.9
2017-09-15T03:35:07.933Z,83.9
2017-09-15T03:36:08.886Z,84.0
2017-09-15T03:37:09.735Z,83.5
2017-09-15T03:38:10.734Z,83.2
2017-09-15T03:39:11.557Z,83.3
2017-09-15T03:40:12.323Z,82.9
2017-09-15T03:41:13.320Z,83.6
2017-09-15T03:42:14.080Z,83.1
2017-09-15T03:43:15.261Z,82.9
2017-09-15T03:44:16.036Z,83.5
2017-09-15T03:45:16.864Z,83.5
2017-09-15T03:46:17.826Z,84.0
2017-09-15T03:47:18.566Z,84.1
2017-09-15T03:48:19.316Z,84.6
2017-09-15T03:49:20.009Z,84.3
2017-09-15T03:50:20.774Z,84.3
2017-09-15T03:51:21.505Z,85.2
2017-09-15T03:52:22.274Z,85.1
2017-09-15T03:53:23.015Z,85.2
2017-09-15T03:54:23.762Z,85.4
2017-09-15T03:55:24.591Z,85.4
2017-09-15T03:56:25.297Z,85.5
2017-09-15T03:57:26.285Z,85.4
2017-09-15T03:58:27.085Z,85.9
2017-09-15T03:59:28.108Z,86.1
2017-09-15T04:00:28.889Z,86.0
2017-09-15T04:01:30.179Z,86.0
2017-09-15T04:02:30.971Z,86.1
2017-09-15T04:03:31.719Z,86.0
2017-09-15T04:04:32.526Z,85.8
2017-09-15T04:05:33.278Z,86.0
2017-09-15T04:06:34.305Z,85.7
2017-09-15T04:07:35.031Z,86.0
2017-09-15T04:08:35.803Z,86.5
2017-09-15T04:09:36.771Z,86.5
2017-09-15T04:10:37.490Z,86.4
2017-09-15T04:11:38.250Z,86.0
2017-09-15T04:12:39.060Z,84.9
2017-09-15T04:13:39.896Z,85.2
2017-09-15T04:14:40.603Z,85.5
2017-09-15T04:16:56.947Z,85.6
2017-09-15T04:17:57.644Z,86.3
2017-09-15T04:18:58.526Z,86.7
2017-09-15T04:19:59.360Z,85.8
2017-09-15T04:21:00.159Z,86.3
2017-09-15T04:22:00.989Z,85.7
2017-09-15T04:23:01.909Z,86.3
2017-09-15T04:25:18.305Z,86.2
2017-09-15T04:26:19.087Z,85.9
2017-09-15T04:27:19.934Z,84.9
2017-09-15T04:28:20.878Z,85.7
2017-09-15T04:29:21.960Z,85.3
2017-09-15T04:30:22.835Z,84.9
2017-09-15T04:31:23.610Z,85.6
2017-09-15T04:32:24.449Z,85.7
2017-09-15T04:33:25.191Z,85.6
2017-09-15T04:34:25.936Z,84.0
2017-09-15T04:35:26.785Z,83.3
2017-09-15T04:36:27.486Z,84.4
2017-09-15T04:37:28.294Z,84.9
2017-09-15T04:38:29.131Z,85.1
2017-09-15T04:39:29.882Z,85.3
2017-09-15T04:40:31.469Z,85.2
2017-09-15T04:41:32.168Z,85.6
2017-09-15T04:42:33.005Z,84.8
2017-09-15T04:43:33.729Z,85.1
2017-09-15T04:44:34.692Z,84.8
2017-09-15T04:45:35.372Z,84.1
2017-09-15T04:46:36.288Z,84.6
2017-09-15T04:47:38.250Z,84.3
2017-09-15T04:48:39.028Z,83.3
2017-09-15T04:49:39.758Z,83.1
2017-09-15T04:50:40.567Z,84.5
2017-09-15T04:51:41.305Z,84.7
2017-09-15T04:52:42.520Z,84.7
2017-09-15T04:53:43.259Z,84.8
2017-09-15T04:54:44.174Z,83.7
2017-09-15T04:55:44.955Z,84.8
2017-09-15T04:56:45.741Z,83.8
2017-09-15T04:57:46.475Z,83.8
2017-09-15T04:58:47.405Z,84.8
2017-09-15T04:59:48.155Z,83.6
2017-09-15T05:02:04.497Z,83.3
2017-09-15T05:03:05.432Z,84.7
2017-09-15T05:04:06.227Z,84.7
2017-09-15T05:05:07.577Z,84.4
2017-09-15T05:06:08.259Z,84.2
2017-09-15T05:07:08.982Z,83.8
2017-09-15T05:08:09.760Z,83.7
2017-09-15T05:09:10.538Z,83.9
2017-09-15T05:10:11.260Z,82.9
2017-09-15T05:11:11.987Z,82.9
2017-09-15T05:12:12.816Z,83.9
2017-09-15T05:13:13.627Z,83.4
2017-09-15T05:14:14.697Z,83.5
2017-09-15T05:15:15.486Z,82.5
2017-09-15T05:16:16.699Z,83.3
2017-09-15T05:17:17.391Z,83.6
2017-09-15T05:18:18.100Z,83.4
2017-09-15T05:19:18.904Z,84.3
2017-09-15T05:20:19.697Z,84.8
2017-09-15T05:21:20.450Z,84.1
2017-09-15T05:22:21.322Z,83.1
2017-09-15T05:23:22.167Z,82.3
2017-09-15T05:24:22.898Z,83.4
2017-09-15T05:26:39.145Z,83.0
2017-09-15T05:27:39.953Z,82.9
2017-09-15T05:28:40.684Z,83.1
2017-09-15T05:29:41.454Z,82.5
2017-09-15T05:30:42.804Z,82.3
2017-09-15T05:31:43.564Z,83.6
2017-09-15T05:32:44.413Z,83.3
2017-09-15T05:33:45.413Z,82.1
2017-09-15T05:34:46.130Z,81.2
2017-09-15T05:35:46.962Z,81.8
2017-09-15T05:36:47.644Z,83.0
2017-09-15T05:37:48.482Z,83.8
2017-09-15T05:38:49.213Z,83.0
2017-09-15T05:39:49.947Z,83.0
2017-09-15T05:40:50.840Z,83.2
2017-09-15T05:41:52.898Z,82.7
2017-09-15T05:42:53.856Z,83.1
2017-09-15T05:43:54.809Z,83.5
2017-09-15T05:44:55.628Z,83.0
2017-09-15T05:45:56.442Z,83.6
2017-09-15T05:46:57.821Z,84.1
2017-09-15T05:47:58.641Z,84.8
2017-09-15T05:49:05.678Z,83.1
2017-09-15T05:50:06.413Z,82.8
2017-09-15T05:51:07.140Z,82.8
2017-09-15T05:52:07.887Z,82.8
2017-09-15T05:53:09.103Z,82.9
2017-09-15T05:54:16.676Z,83.2
2017-09-15T05:55:17.457Z,82.5
2017-09-15T05:56:18.559Z,83.6
2017-09-15T05:58:35.182Z,81.2
2017-09-15T05:59:36.753Z,82.3
2017-09-15T06:00:37.483Z,81.7
2017-09-15T06:01:38.400Z,82.3
2017-09-15T06:02:39.196Z,81.8
2017-09-15T06:03:39.981Z,80.8
2017-09-15T06:04:40.844Z,80.7
2017-09-15T06:05:41.634Z,81.6
2017-09-15T06:06:42.402Z,82.2
2017-09-15T06:10:14.434Z,81.9
2017-09-15T06:11:15.503Z,81.7
2017-09-15T06:12:16.279Z,82.4
2017-09-15T06:13:17.065Z,80.1
2017-09-15T06:14:17.818Z,79.8
2017-09-15T06:15:18.771Z,80.7
2017-09-15T06:16:19.504Z,81.5
2017-09-15T06:17:20.452Z,82.1
2017-09-15T06:18:21.255Z,81.4
2017-09-15T06:19:27.282Z,80.8
2017-09-15T06:20:28.399Z,80.5
2017-09-15T06:21:29.444Z,81.5
2017-09-15T06:22:30.155Z,80.0
2017-09-15T06:23:31.014Z,80.5
2017-09-15T06:24:31.714Z,81.1
2017-09-15T06:25:32.977Z,81.5
2017-09-15T06:26:34.223Z,82.2
2017-09-15T06:27:35.717Z,82.3
2017-09-15T06:28:37.161Z,82.2
2017-09-15T06:29:37.821Z,81.5
2017-09-15T06:30:39.012Z,80.1
2017-09-15T06:31:39.906Z,80.0
2017-09-15T06:32:40.700Z,81.1
2017-09-15T06:33:41.510Z,81.3
2017-09-15T06:34:42.495Z,81.4
2017-09-15T06:35:43.361Z,81.2
2017-09-15T06:36:44.305Z,81.3
2017-09-15T06:37:45.242Z,81.5
2017-09-15T06:38:46.000Z,80.1
2017-09-15T06:39:46.774Z,80.5
2017-09-15T06:40:47.645Z,80.4
2017-09-15T06:41:48.333Z,80.9
2017-09-15T06:42:49.257Z,80.8
2017-09-15T06:43:49.951Z,80.9
2017-09-15T06:44:50.683Z,81.4
2017-09-15T06:45:51.790Z,80.7
2017-09-15T06:46:52.547Z,79.5
2017-09-15T06:47:53.320Z,80.2
2017-09-15T06:48:54.440Z,79.9
2017-09-15T06:49:55.379Z,79.8
2017-09-15T06:50:56.253Z,79.7
2017-09-15T06:51:57.073Z,79.8
2017-09-15T06:52:57.791Z,80.7
2017-09-15T06:53:58.549Z,80.1
2017-09-15T06:54:59.293Z,80.5
2017-09-15T06:56:00.089Z,78.7
2017-09-15T06:57:00.963Z,79.2
2017-09-15T06:58:01.634Z,79.3
2017-09-15T06:59:02.383Z,79.1
2017-09-15T07:00:03.368Z,79.5
2017-09-15T07:01:04.257Z,79.4
2017-09-15T07:02:04.991Z,79.6
2017-09-15T07:03:05.758Z,79.6
2017-09-15T07:04:06.640Z,76.7
2017-09-15T07:05:07.535Z,77.7
2017-09-15T07:06:08.343Z,78.2
2017-09-15T07:07:09.310Z,78.6
2017-09-15T07:08:10.152Z,78.6
2017-09-15T07:09:11.113Z,78.8
2017-09-15T07:10:11.844Z,78.3
2017-09-15T07:11:12.659Z,78.4
2017-09-15T07:12:13.451Z,78.0
2017-09-15T07:13:14.231Z,75.8
2017-09-15T07:14:15.057Z,76.3
2017-09-15T07:15:15.940Z,77.1
2017-09-15T07:16:16.698Z,77.3
2017-09-15T07:17:17.503Z,78.6
2017-09-15T07:18:18.209Z,77.4
2017-09-15T07:19:19.192Z,77.4
2017-09-15T07:20:19.920Z,77.1
2017-09-15T07:21:20.793Z,77.8
2017-09-15T07:22:21.551Z,77.4
2017-09-15T07:23:22.287Z,77.1
2017-09-15T07:24:23.115Z,77.4
2017-09-15T07:25:23.922Z,77.2
2017-09-15T07:26:24.884Z,76.6
2017-09-15T07:27:25.657Z,77.4
2017-09-15T07:28:26.518Z,77.9
2017-09-15T07:29:27.242Z,77.4
2017-09-15T07:30:28.227Z,77.5
2017-09-15T07:31:28.980Z,77.2
2017-09-15T07:32:29.737Z,78.1
2017-09-15T07:33:30.441Z,77.8
2017-09-15T07:34:31.233Z,78.2
2017-09-15T07:35:31.993Z,77.6
2017-09-15T07:36:32.918Z,77.6
2017-09-15T07:37:33.707Z,78.2
2017-09-15T07:38:34.535Z,77.4
2017-09-15T07:39:35.255Z,77.5
2017-09-15T07:40:36.013Z,78.2
2017-09-15T07:41:36.951Z,77.5
2017-09-15T07:42:37.822Z,77.5
2017-09-15T07:43:38.636Z,76.6
2017-09-15T07:44:39.395Z,77.8
2017-09-15T07:45:40.424Z,77.3
2017-09-15T07:46:41.169Z,77.3
2017-09-15T07:47:41.956Z,76.4
2017-09-15T07:48:42.693Z,76.9
2017-09-15T07:49:43.511Z,76.5
2017-09-15T07:50:44.248Z,76.5
2017-09-15T07:51:45.217Z,77.2
2017-09-15T07:52:45.982Z,77.3
2017-09-15T07:53:47.258Z,77.5
2017-09-15T07:54:47.997Z,77.1
2017-09-15T07:55:48.781Z,77.3
2017-09-15T07:56:49.549Z,76.3
2017-09-15T07:57:50.372Z,76.7
2017-09-15T07:58:51.151Z,74.8
2017-09-15T07:59:52.000Z,75.5
2017-09-15T08:00:53.010Z,75.9
2017-09-15T08:01:54.152Z,74.8
2017-09-15T08:02:54.864Z,75.5
2017-09-15T08:03:55.727Z,76.6
2017-09-15T08:04:56.563Z,77.0
2017-09-15T08:05:57.345Z,77.1
2017-09-15T08:06:58.091Z,76.8
2017-09-15T08:07:58.908Z,76.3
2017-09-15T08:10:16.104Z,75.1
2017-09-15T08:11:16.855Z,75.4
2017-09-15T08:12:17.560Z,74.5
2017-09-15T08:13:18.380Z,75.5
2017-09-15T08:14:19.092Z,75.7
2017-09-15T08:15:19.935Z,76.3
2017-09-15T08:16:20.657Z,77.4
2017-09-15T08:17:21.524Z,76.1
2017-09-15T08:18:22.250Z,75.4
2017-09-15T08:19:23.337Z,75.2
2017-09-15T08:20:24.074Z,75.5
2017-09-15T08:21:25.055Z,77.0
2017-09-15T08:22:25.939Z,75.3
2017-09-15T08:23:26.734Z,75.1
2017-09-15T08:24:27.521Z,75.6
2017-09-15T08:25:28.423Z,76.1
2017-09-15T08:26:29.208Z,75.7
2017-09-15T08:27:29.954Z,71.7
2017-09-15T08:28:30.727Z,73.4
2017-09-15T08:29:31.509Z,74.6
2017-09-15T08:30:32.458Z,75.6
2017-09-15T08:31:33.241Z,75.0
2017-09-15T08:32:34.244Z,75.0
2017-09-15T08:33:35.260Z,74.3
2017-09-15T08:34:36.191Z,72.8
2017-09-15T08:35:37.181Z,71.2
2017-09-15T08:36:38.147Z,72.3
2017-09-15T08:37:38.949Z,73.9
2017-09-15T08:38:39.686Z,73.7
2017-09-15T08:39:40.525Z,73.6
2017-09-15T08:40:41.327Z,73.2
2017-09-15T08:41:42.078Z,73.2
2017-09-15T08:42:42.897Z,73.8
2017-09-15T08:43:43.794Z,73.8
2017-09-15T08:44:44.534Z,72.7
2017-09-15T08:45:45.369Z,70.9
2017-09-15T08:46:46.312Z,72.5
2017-09-15T08:47:47.447Z,72.0
2017-09-15T08:48:48.239Z,71.5
2017-09-15T08:49:49.327Z,71.2
2017-09-15T08:50:50.134Z,72.0
2017-09-15T08:51:50.952Z,69.3
2017-09-15T08:52:51.706Z,71.2
2017-09-15T08:53:52.486Z,73.4
2017-09-15T08:54:53.278Z,72.3
2017-09-15T08:55:54.051Z,70.1
2017-09-15T08:56:55.108Z,70.0
2017-09-15T08:57:55.964Z,71.4
2017-09-15T08:58:56.702Z,72.7
2017-09-15T08:59:57.467Z,71.0
2017-09-15T09:00:58.475Z,70.3
2017-09-15T09:01:59.407Z,72.2
2017-09-15T09:03:00.234Z,72.3
2017-09-15T09:04:00.965Z,70.4
2017-09-15T09:05:02.059Z,71.4
2017-09-15T09:06:02.777Z,71.2
2017-09-15T09:07:03.597Z,71.7
2017-09-15T09:08:04.436Z,71.0
2017-09-15T09:09:05.214Z,69.9
2017-09-15T09:10:05.969Z,70.0
2017-09-15T09:11:06.727Z,69.9
2017-09-15T09:12:07.484Z,69.5
2017-09-15T09:13:08.203Z,69.5
2017-09-15T09:14:08.925Z,68.8
2017-09-15T09:16:25.207Z,69.7
2017-09-15T09:17:26.064Z,69.4
2017-09-15T09:18:26.789Z,69.7
2017-09-15T09:19:27.569Z,69.6
2017-09-15T09:20:28.367Z,68.8
2017-09-15T09:21:29.222Z,69.4
2017-09-15T09:22:30.027Z,67.5
2017-09-15T09:23:30.871Z,67.2
2017-09-15T09:24:31.710Z,67.2
2017-09-15T09:25:32.878Z,68.0
2017-09-15T09:26:33.645Z,67.7
2017-09-15T09:27:39.391Z,68.8
2017-09-15T09:28:40.211Z,69.6
2017-09-15T09:29:40.970Z,69.8
2017-09-15T09:30:41.722Z,69.0
2017-09-15T09:31:42.506Z,68.7
2017-09-15T09:32:43.264Z,67.8
2017-09-15T09:33:44.017Z,66.7
2017-09-15T09:34:45.024Z,67.8
2017-09-15T09:35:45.745Z,66.8
2017-09-15T09:36:46.496Z,67.4
2017-09-15T09:37:47.300Z,68.3
2017-09-15T09:38:48.247Z,67.3
2017-09-15T09:39:49.001Z,67.2
2017-09-15T09:40:49.801Z,67.7
2017-09-15T09:41:50.562Z,69.6
2017-09-15T09:42:51.378Z,68.9
2017-09-15T09:43:52.111Z,68.6
2017-09-15T09:44:52.837Z,68.2
2017-09-15T09:45:53.902Z,69.3
2017-09-15T09:46:54.680Z,68.9
2017-09-15T09:47:55.520Z,68.3
2017-09-15T09:48:56.284Z,67.8
2017-09-15T09:49:57.250Z,67.6
2017-09-15T09:50:58.031Z,68.4
2017-09-15T09:51:59.008Z,66.8
2017-09-15T09:53:00.062Z,66.1
2017-09-15T09:54:00.791Z,66.6
2017-09-15T09:55:01.617Z,66.9
2017-09-15T09:56:02.373Z,66.1
2017-09-15T09:57:03.161Z,65.8
2017-09-15T09:58:03.907Z,64.8
2017-09-15T09:59:04.682Z,63.4
2017-09-15T10:01:21.354Z,66.2
2017-09-15T10:02:22.308Z,64.2
2017-09-15T10:03:23.247Z,63.9
2017-09-15T10:04:24.088Z,66.5
2017-09-15T10:05:24.903Z,64.3
2017-09-15T10:06:25.681Z,64.7
2017-09-15T10:07:26.453Z,65.7
2017-09-15T10:08:27.240Z,66.1
2017-09-15T10:09:28.015Z,64.2
2017-09-15T10:10:28.793Z,63.0
2017-09-15T10:11:29.507Z,64.6
2017-09-15T10:12:30.218Z,63.4
2017-09-15T10:13:31.062Z,62.9
2017-09-15T10:14:32.033Z,62.3
2017-09-15T10:16:48.336Z,63.1
2017-09-15T10:17:49.495Z,63.7
2017-09-15T10:18:50.180Z,63.3
2017-09-15T10:19:51.087Z,62.8
2017-09-15T10:20:51.997Z,64.2
2017-09-15T10:21:53.222Z,62.7
2017-09-15T10:22:53.957Z,62.8
2017-09-15T10:23:54.888Z,64.4
2017-09-15T10:24:55.869Z,61.8
2017-09-15T10:25:56.837Z,60.7
2017-09-15T10:26:57.563Z,62.0
2017-09-15T10:27:58.543Z,60.7
2017-09-15T10:28:59.344Z,59.9
2017-09-15T10:30:00.077Z,62.3
2017-09-15T10:31:00.939Z,60.0
2017-09-15T10:32:01.758Z,60.9
2017-09-15T10:33:02.567Z,61.2
2017-09-15T10:34:03.470Z,59.9
2017-09-15T10:35:04.184Z,61.1
2017-09-15T10:36:05.149Z,64.0
2017-09-15T10:37:06.030Z,62.1
2017-09-15T10:38:06.776Z,64.8
2017-09-15T10:39:07.729Z,64.2
2017-09-15T10:40:08.556Z,63.3
2017-09-15T10:41:09.829Z,63.7
2017-09-15T10:42:11.160Z,62.7
2017-09-15T10:43:11.954Z,62.3
2017-09-15T10:44:13.105Z,61.7
2017-09-15T10:45:14.064Z,58.8
2017-09-15T10:46:14.863Z,59.9
2017-09-15T10:47:15.779Z,59.5
2017-09-15T10:48:16.686Z,59.1
2017-09-15T10:49:17.747Z,59.9
2017-09-15T10:50:18.534Z,59.8
2017-09-15T10:51:19.254Z,57.6
2017-09-15T10:52:20.084Z,59.4
2017-09-15T10:53:21.026Z,60.4
2017-09-15T10:54:21.739Z,59.7
2017-09-15T10:55:22.560Z,60.0
2017-09-15T10:56:23.582Z,60.4
2017-09-15T10:57:24.396Z,59.7
2017-09-15T10:58:25.216Z,59.7
2017-09-15T10:59:25.916Z,58.8
2017-09-15T11:00:26.756Z,58.8
2017-09-15T11:01:27.978Z,58.0
2017-09-15T11:02:28.672Z,60.4
2017-09-15T11:03:29.556Z,60.7
2017-09-15T11:04:30.337Z,61.3
2017-09-15T11:05:31.158Z,59.8
2017-09-15T11:06:31.934Z,59.3
2017-09-15T11:07:32.708Z,58.3
2017-09-15T11:08:33.486Z,60.4
2017-09-15T11:09:34.211Z,59.7
2017-09-15T11:10:34.967Z,58.3
2017-09-15T11:11:35.733Z,59.0
2017-09-15T11:12:36.554Z,60.8
2017-09-15T11:13:37.259Z,62.1
2017-09-15T11:14:38.062Z,61.5
2017-09-15T11:15:38.827Z,60.3
2017-09-15T11:16:39.604Z,61.2
2017-09-15T11:17:40.314Z,60.8
2017-09-15T11:18:41.044Z,59.5
2017-09-15T11:19:41.804Z,61.2
2017-09-15T11:20:42.593Z,59.3
2017-09-15T11:21:43.326Z,60.5
2017-09-15T11:22:44.126Z,61.2
2017-09-15T11:23:44.873Z,62.2
2017-09-15T11:24:45.681Z,60.4
2017-09-15T11:25:46.647Z,61.6
2017-09-15T11:26:47.642Z,62.3
2017-09-15T11:27:48.593Z,61.3
2017-09-15T11:28:49.297Z,60.6
2017-09-15T11:29:50.031Z,60.8
2017-09-15T11:30:51.129Z,61.0
2017-09-15T11:31:52.055Z,59.8
2017-09-15T11:32:53.101Z,57.5
2017-09-15T11:33:53.920Z,58.0
2017-09-15T11:34:54.619Z,59.2
2017-09-15T11:35:55.383Z,59.7
2017-09-15T11:36:56.187Z,59.4
2017-09-15T11:37:56.937Z,58.2
2017-09-15T11:38:57.691Z,57.6
2017-09-15T11:39:58.493Z,58.3
2017-09-15T11:40:59.501Z,60.6
2017-09-15T11:42:00.276Z,58.8
2017-09-15T11:43:01.124Z,58.3
2017-09-15T11:44:01.956Z,60.4
2017-09-15T11:45:02.680Z,59.0
2017-09-15T11:46:03.533Z,58.9
2017-09-15T11:47:04.280Z,57.4
2017-09-15T11:48:05.076Z,57.4
2017-09-15T11:49:06.159Z,57.2
2017-09-15T11:50:07.823Z,56.9
2017-09-15T11:51:08.654Z,58.3
2017-09-15T11:52:09.880Z,58.7
2017-09-15T11:53:10.652Z,58.2
2017-09-15T11:54:11.403Z,59.8
2017-09-15T11:55:12.130Z,58.1
2017-09-15T11:56:12.934Z,60.0
2017-09-15T11:57:13.710Z,61.7
2017-09-15T12:03:17.072Z,58.9
2017-09-15T12:04:17.760Z,57.6
2017-09-15T12:05:18.676Z,56.7
2017-09-15T12:06:19.552Z,58.2
2017-09-15T12:07:20.487Z,60.0
2017-09-15T12:08:21.338Z,60.0
2017-09-15T12:09:22.087Z,59.2
2017-09-15T12:10:23.014Z,60.8
2017-09-15T12:11:23.741Z,58.3
2017-09-15T12:12:24.465Z,59.1
2017-09-15T12:13:25.301Z,55.5
2017-09-15T12:14:26.073Z,58.3
2017-09-15T12:15:27.767Z,58.1
2017-09-15T12:16:28.609Z,57.5
2017-09-15T12:17:29.322Z,55.0
2017-09-15T12:18:30.085Z,55.6
2017-09-15T12:19:30.981Z,53.0
2017-09-15T12:20:31.942Z,55.4
2017-09-15T12:21:32.662Z,54.2
2017-09-15T12:22:33.473Z,54.0
2017-09-15T12:23:34.311Z,54.9
2017-09-15T12:24:35.069Z,54.7
2017-09-15T12:25:36.123Z,53.2
2017-09-15T12:26:36.899Z,51.8
2017-09-15T12:27:37.909Z,53.8
2017-09-15T12:28:38.724Z,52.7
2017-09-15T12:29:39.560Z,54.7
2017-09-15T12:30:40.384Z,53.9
2017-09-15T12:31:41.181Z,54.0
2017-09-15T12:32:42.034Z,54.6
2017-09-15T12:33:42.782Z,54.5
2017-09-15T12:34:43.530Z,51.0
2017-09-15T12:35:44.336Z,51.2
2017-09-15T12:36:45.335Z,52.2
2017-09-15T12:37:46.149Z,52.7
2017-09-15T12:38:46.897Z,54.0
2017-09-15T12:39:47.686Z,53.1
2017-09-15T12:40:48.587Z,52.0
2017-09-15T12:41:49.336Z,52.5
2017-09-15T12:42:50.168Z,51.5
2017-09-15T12:43:50.910Z,52.9
2017-09-15T12:44:51.632Z,52.8
2017-09-15T12:45:52.496Z,51.3
2017-09-15T12:46:53.402Z,52.4
2017-09-15T12:47:54.131Z,50.3
2017-09-15T12:48:54.873Z,50.7
2017-09-15T12:49:55.599Z,49.6
2017-09-15T12:50:56.391Z,50.3
2017-09-15T12:51:57.256Z,51.8
2017-09-15T12:52:58.024Z,53.0
2017-09-15T12:53:58.807Z,51.9
2017-09-15T12:54:59.772Z,51.8
2017-09-15T12:56:00.701Z,52.1
2017-09-15T12:57:01.490Z,50.3
2017-09-15T12:58:02.293Z,49.9
2017-09-15T12:59:03.054Z,50.8
2017-09-15T13:00:03.944Z,51.5
2017-09-15T13:01:04.743Z,52.0
2017-09-15T13:02:05.580Z,52.8
2017-09-15T13:03:06.332Z,53.9
2017-09-15T13:04:07.386Z,52.5
2017-09-15T13:05:08.170Z,51.3
2017-09-15T13:06:08.956Z,53.1
2017-09-15T13:07:09.697Z,52.8
2017-09-15T13:08:10.526Z,55.2
2017-09-15T13:09:11.639Z,55.5
2017-09-15T13:10:13.007Z,54.7
2017-09-15T13:11:13.987Z,54.0
2017-09-15T13:12:15.080Z,53.8
2017-09-15T13:13:15.898Z,53.8
2017-09-15T13:14:16.740Z,56.5
2017-09-15T13:15:17.665Z,55.4
2017-09-15T13:16:18.777Z,55.7
2017-09-15T13:17:19.512Z,57.7
2017-09-15T13:18:20.316Z,53.8
2017-09-15T13:19:21.115Z,55.8
2017-09-15T13:20:22.010Z,56.8
2017-09-15T13:21:22.867Z,56.6
2017-09-15T13:22:23.650Z,55.3
2017-09-15T13:23:24.423Z,54.7
2017-09-15T13:24:25.351Z,54.4
2017-09-15T13:25:26.137Z,53.9
2017-09-15T13:26:26.883Z,56.5
2017-09-15T13:27:27.661Z,55.0
2017-09-15T13:28:28.441Z,56.8
2017-09-15T13:29:29.300Z,56.3
2017-09-15T13:30:30.555Z,54.6
2017-09-15T13:31:31.265Z,53.4
2017-09-15T13:32:31.983Z,52.5
2017-09-15T13:33:32.959Z,54.0
2017-09-15T13:34:33.697Z,53.2
2017-09-15T13:35:34.536Z,54.5
2017-09-15T13:36:35.305Z,52.8
2017-09-15T13:37:36.239Z,53.1
2017-09-15T13:38:36.959Z,52.7
2017-09-15T13:39:37.752Z,53.3
2017-09-15T13:41:54.072Z,53.3
2017-09-15T13:42:55.352Z,53.8
2017-09-15T13:43:56.023Z,54.4
2017-09-15T13:44:56.773Z,55.1
2017-09-15T13:45:57.782Z,55.2
2017-09-15T13:46:58.673Z,54.0
2017-09-15T13:47:59.450Z,51.9
2017-09-15T13:49:00.205Z,51.9
2017-09-15T13:50:01.029Z,53.1
2017-09-15T13:51:01.976Z,53.3
2017-09-15T13:52:02.733Z,56.6